Capitol Logistics 202


KIAD
Washington Dulles International Airport
Dulles, Virginia, US
KMIA
Miami International Airport
Miami, Florida, US

Route Details

Aircraft Information
Primary: Boeing 767-300BDSF
Backup: Not Available
Route Data
Distance: 894nm
Sched. Duration: 2h 29m
Avg. Duration: 2h 28m (-1m)
Times Flown: 17
Recm'd Route: JDUBB2 GSO J75 CAE J51 SAV J103 OMN HILEY7
Planned Altitude: 34,000ft
Origin Wx: KIAD 310552Z 35010KT 10SM BKN070 11/01 A2999 RMK AO2 SLP153 T01110011 10167 20111 53003
Dest. Wx: KMIA 310553Z 00000KT 10SM FEW020 SCT030 24/22 A2998 RMK AO2 SLP152 T02390217 10261 20239 58015
Notes:

Financial History
Total Freight: 1,396,815lbs
Average Load: 82,166lbs/flt
Fuel Used: 416,211lbs
Avg. Fuel Used: 24,483lbs/flt
Fuel Expense: $546,726
Avg. Fuel Expense: $32,160
Avg. Fuel Cost: $1.31/lbs
Total Gross Income: $1,783,348
Pilot Pay: $2,653
Total Expenses: $190,668
Total Revenue: $1,037,004
Average Revenue: $104,902.85